createdAt,value
2022-11-29T00:01:46.494Z,10.30
2022-11-29T00:04:16.462Z,10.30
2022-11-29T00:06:44.131Z,10.20
2022-11-29T00:09:15.054Z,10.10
2022-11-29T00:12:01.639Z,10.10
2022-11-29T00:14:29.615Z,10.20
2022-11-29T00:17:01.830Z,10.10
2022-11-29T00:19:29.730Z,10.10
2022-11-29T00:21:57.021Z,10.10
2022-11-29T00:24:26.687Z,10.10
2022-11-29T00:26:56.462Z,10.10
2022-11-29T00:29:28.601Z,10.10
2022-11-29T00:31:59.394Z,10.00
2022-11-29T00:34:29.041Z,10.00
2022-11-29T00:36:56.401Z,9.90
2022-11-29T00:39:23.718Z,9.90
2022-11-29T00:41:50.929Z,9.90
2022-11-29T00:44:20.481Z,9.80
2022-11-29T00:46:48.371Z,9.80
2022-11-29T00:49:20.967Z,9.70
2022-11-29T00:51:50.782Z,9.60
2022-11-29T00:54:20.620Z,9.60
2022-11-29T00:56:47.866Z,9.50
2022-11-29T00:59:15.072Z,9.40
2022-11-29T01:01:49.883Z,9.30
2022-11-29T01:04:18.089Z,9.20
2022-11-29T01:06:45.311Z,9.20
2022-11-29T01:09:12.526Z,9.10
2022-11-29T01:11:39.731Z,9.10
2022-11-29T01:14:07.438Z,9.10
2022-11-29T01:16:35.225Z,9.10
2022-11-29T01:19:02.774Z,9.00
2022-11-29T01:21:30.462Z,9.00
2022-11-29T01:23:58.239Z,9.00
2022-11-29T01:26:30.205Z,9.00
2022-11-29T01:28:58.956Z,9.00
2022-11-29T01:31:32.947Z,8.90
2022-11-29T01:34:02.482Z,8.90
2022-11-29T01:36:30.154Z,8.90
2022-11-29T01:38:59.811Z,8.80
2022-11-29T01:41:30.572Z,8.70
2022-11-29T01:44:27.348Z,8.70
2022-11-29T01:46:55.431Z,8.60
2022-11-29T01:49:34.199Z,8.40
2022-11-29T01:52:11.002Z,8.20
2022-11-29T01:54:45.287Z,8.10
2022-11-29T01:57:15.455Z,8.00
2022-11-29T01:59:48.747Z,8.00
2022-11-29T02:02:20.601Z,8.00
2022-11-29T02:04:49.462Z,8.00
2022-11-29T02:07:21.769Z,8.00
2022-11-29T02:09:49.012Z,8.00
2022-11-29T02:12:39.880Z,7.90
2022-11-29T02:15:43.006Z,7.90
2022-11-29T02:18:22.837Z,7.90
2022-11-29T02:21:09.591Z,7.90
2022-11-29T02:23:55.929Z,7.80
2022-11-29T02:27:02.071Z,7.80
2022-11-29T02:30:05.100Z,7.70
2022-11-29T02:33:03.549Z,7.60
2022-11-29T02:35:51.091Z,7.60
2022-11-29T02:38:37.588Z,7.60
2022-11-29T02:41:36.239Z,7.50
2022-11-29T02:44:24.604Z,7.50
2022-11-29T02:47:29.545Z,7.50
2022-11-29T02:50:15.634Z,7.50
2022-11-29T02:53:04.547Z,7.60
2022-11-29T02:55:44.505Z,7.60
2022-11-29T02:58:37.730Z,7.60
2022-11-29T03:01:26.687Z,7.60
2022-11-29T03:04:18.722Z,7.60
2022-11-29T03:06:51.020Z,7.60
2022-11-29T03:09:40.151Z,7.70
2022-11-29T03:12:16.641Z,7.60
2022-11-29T03:15:04.422Z,7.60
2022-11-29T03:18:01.955Z,7.50
2022-11-29T03:21:08.534Z,7.50
2022-11-29T03:23:36.141Z,7.50
2022-11-29T03:26:14.974Z,7.60
2022-11-29T03:28:56.773Z,7.50
2022-11-29T03:31:26.198Z,7.60
2022-11-29T03:34:05.304Z,7.70
2022-11-29T03:36:54.529Z,7.70
2022-11-29T03:39:33.356Z,7.80
2022-11-29T03:42:05.292Z,7.90
2022-11-29T03:45:10.954Z,7.80
2022-11-29T03:47:51.037Z,7.80
2022-11-29T03:50:48.292Z,7.30
2022-11-29T03:53:52.361Z,7.20
2022-11-29T03:56:29.804Z,7.20
2022-11-29T03:59:27.813Z,7.40
2022-11-29T04:01:55.100Z,7.40
2022-11-29T04:04:28.244Z,7.50
2022-11-29T04:07:17.490Z,7.50
2022-11-29T04:10:13.652Z,7.30
2022-11-29T04:13:19.610Z,7.30
2022-11-29T04:16:05.297Z,7.30
2022-11-29T04:18:44.369Z,7.20
2022-11-29T04:21:32.065Z,6.90
2022-11-29T04:24:23.439Z,6.90
2022-11-29T04:27:25.024Z,7.00
2022-11-29T04:30:08.356Z,6.90
2022-11-29T04:33:07.657Z,6.70
2022-11-29T04:36:11.184Z,6.50
2022-11-29T04:38:59.917Z,6.30
2022-11-29T04:41:30.561Z,6.50
2022-11-29T04:44:06.838Z,6.60
2022-11-29T04:47:06.308Z,6.70
2022-11-29T04:50:19.227Z,6.80
2022-11-29T04:53:26.360Z,6.80
2022-11-29T04:56:18.049Z,6.80
2022-11-29T04:59:15.821Z,6.70
2022-11-29T05:02:07.688Z,6.70
2022-11-29T05:05:05.693Z,6.80
2022-11-29T05:07:49.127Z,6.80
2022-11-29T05:10:47.235Z,6.90
2022-11-29T05:13:51.301Z,6.90
2022-11-29T05:16:35.854Z,7.00
2022-11-29T05:19:27.402Z,7.10
2022-11-29T05:22:21.768Z,7.20
2022-11-29T05:25:07.384Z,7.30
2022-11-29T05:28:18.123Z,7.30
2022-11-29T05:31:20.183Z,7.30
2022-11-29T05:34:21.702Z,7.40
2022-11-29T05:37:06.546Z,7.50
2022-11-29T05:39:41.653Z,7.60
2022-11-29T05:42:23.455Z,7.60
2022-11-29T05:45:26.010Z,7.40
2022-11-29T05:48:24.850Z,7.40
2022-11-29T05:51:09.924Z,7.50
2022-11-29T05:53:47.733Z,7.70
2022-11-29T05:56:26.489Z,7.80
2022-11-29T05:59:01.097Z,8.00
2022-11-29T06:01:40.252Z,8.00
2022-11-29T06:04:24.645Z,8.10
2022-11-29T06:06:57.651Z,8.20
2022-11-29T06:09:44.544Z,8.30
2022-11-29T06:12:21.421Z,8.30
2022-11-29T06:15:37.831Z,8.50
2022-11-29T06:18:40.586Z,8.50
2022-11-29T06:21:50.902Z,8.60
2022-11-29T06:25:10.157Z,8.70
2022-11-29T06:27:46.841Z,8.70
2022-11-29T06:30:17.424Z,8.80
2022-11-29T06:33:03.537Z,8.80
2022-11-29T06:35:56.362Z,8.80
2022-11-29T06:38:27.719Z,8.90
2022-11-29T06:41:02.332Z,8.90
2022-11-29T06:43:31.427Z,9.00
2022-11-29T06:46:16.491Z,9.00
2022-11-29T06:48:57.831Z,9.10
2022-11-29T06:51:33.369Z,9.10
2022-11-29T06:54:17.419Z,9.20
2022-11-29T06:57:18.735Z,9.20
2022-11-29T07:00:32.053Z,9.10
2022-11-29T07:03:39.703Z,9.20
2022-11-29T07:06:25.032Z,9.20
2022-11-29T07:08:57.475Z,9.20
2022-11-29T07:11:25.412Z,9.30
2022-11-29T07:13:55.629Z,9.30
2022-11-29T07:16:31.249Z,9.30
2022-11-29T07:19:19.022Z,9.30
2022-11-29T07:22:05.609Z,9.30
2022-11-29T07:24:42.407Z,9.40
2022-11-29T07:27:22.509Z,9.30
2022-11-29T07:29:55.539Z,9.30
2022-11-29T07:33:00.077Z,9.30
2022-11-29T07:35:49.387Z,9.30
2022-11-29T07:38:31.630Z,9.20
2022-11-29T07:41:04.600Z,9.30
2022-11-29T07:43:54.041Z,9.30
2022-11-29T07:46:21.746Z,9.20
2022-11-29T07:48:49.023Z,9.00
2022-11-29T07:51:16.280Z,8.90
2022-11-29T07:53:46.206Z,8.80
2022-11-29T07:56:16.393Z,8.80
2022-11-29T07:58:45.957Z,8.80
2022-11-29T08:01:13.321Z,8.90
2022-11-29T08:03:45.638Z,8.90
2022-11-29T08:06:12.922Z,8.80
2022-11-29T08:08:44.278Z,8.80
2022-11-29T08:11:12.957Z,8.90
2022-11-29T08:13:40.123Z,9.10
2022-11-29T08:16:08.089Z,9.20
2022-11-29T08:18:37.643Z,9.30
2022-11-29T08:21:08.415Z,9.50
2022-11-29T08:23:38.043Z,9.60
2022-11-29T08:26:05.782Z,9.70
2022-11-29T08:28:35.848Z,9.60
2022-11-29T08:31:08.325Z,9.70
2022-11-29T08:33:39.821Z,9.70
2022-11-29T08:36:09.607Z,9.80
2022-11-29T08:38:37.499Z,9.90
2022-11-29T08:41:07.019Z,10.10
2022-11-29T08:43:37.045Z,10.20
2022-11-29T08:46:05.136Z,10.30
2022-11-29T08:48:35.581Z,10.50
2022-11-29T08:51:07.154Z,10.50
2022-11-29T08:53:43.761Z,10.60
2022-11-29T08:57:04.348Z,10.80
2022-11-29T08:59:06.823Z,10.80
2022-11-29T09:01:35.468Z,10.90
2022-11-29T09:04:02.890Z,11.00
2022-11-29T09:06:33.398Z,11.00
2022-11-29T09:09:03.500Z,11.10
2022-11-29T09:11:33.940Z,11.30
2022-11-29T09:14:05.366Z,11.30
2022-11-29T09:16:37.118Z,11.40
2022-11-29T09:19:05.671Z,11.40
2022-11-29T09:21:36.717Z,11.30
2022-11-29T09:24:06.751Z,11.40
2022-11-29T09:26:36.860Z,11.50
2022-11-29T09:29:06.428Z,11.50
2022-11-29T09:31:35.537Z,11.50
2022-11-29T09:34:03.303Z,11.50
2022-11-29T09:36:31.648Z,11.50
2022-11-29T09:39:03.409Z,11.60
2022-11-29T09:42:12.917Z,11.60
2022-11-29T09:44:40.099Z,11.70
2022-11-29T09:47:32.852Z,11.70
2022-11-29T09:50:24.106Z,11.60
2022-11-29T09:53:06.967Z,11.70
2022-11-29T09:55:55.977Z,11.60
2022-11-29T09:58:31.368Z,11.70
2022-11-29T10:01:08.190Z,11.90
2022-11-29T10:03:49.649Z,11.90
2022-11-29T10:06:36.634Z,11.90
2022-11-29T10:09:21.077Z,11.90
2022-11-29T10:12:13.571Z,11.80
2022-11-29T10:14:49.622Z,11.60
2022-11-29T10:17:41.857Z,11.80
2022-11-29T10:20:43.549Z,11.80
2022-11-29T10:23:29.406Z,11.90
2022-11-29T10:25:58.059Z,11.80
2022-11-29T10:28:31.372Z,11.80
2022-11-29T10:31:27.037Z,11.80
2022-11-29T10:33:56.079Z,11.90
2022-11-29T10:36:47.812Z,11.90
2022-11-29T10:39:46.826Z,11.80
2022-11-29T10:42:39.811Z,11.80
2022-11-29T10:45:31.094Z,11.90
2022-11-29T10:48:17.223Z,11.90
2022-11-29T10:50:49.348Z,12.00
2022-11-29T10:53:30.743Z,12.20
2022-11-29T10:56:16.235Z,12.40
2022-11-29T10:59:09.224Z,12.50
2022-11-29T11:01:44.553Z,12.40
2022-11-29T11:04:24.524Z,12.40
2022-11-29T11:07:01.193Z,12.40
2022-11-29T11:09:51.466Z,12.40
2022-11-29T11:12:25.407Z,12.40
2022-11-29T11:15:04.666Z,12.40
2022-11-29T11:17:37.620Z,12.30
2022-11-29T11:20:25.038Z,12.30
2022-11-29T11:22:57.811Z,12.30
2022-11-29T11:25:35.089Z,12.40
2022-11-29T11:28:23.555Z,12.40
2022-11-29T11:31:03.466Z,12.30
2022-11-29T11:33:35.964Z,12.20
2022-11-29T11:36:22.192Z,12.20
2022-11-29T11:39:12.907Z,12.20
2022-11-29T11:42:02.681Z,12.20
2022-11-29T11:44:50.477Z,12.10
2022-11-29T11:47:43.277Z,12.00
2022-11-29T11:50:16.678Z,11.90
2022-11-29T11:52:54.704Z,11.90
2022-11-29T11:55:32.395Z,11.80
2022-11-29T11:58:14.819Z,11.60
2022-11-29T12:01:05.702Z,11.60
2022-11-29T12:03:40.536Z,11.50
2022-11-29T12:06:26.497Z,11.70
2022-11-29T12:09:01.653Z,11.70
2022-11-29T12:11:39.984Z,11.80
2022-11-29T12:14:10.037Z,11.90
2022-11-29T12:16:40.449Z,11.90
2022-11-29T12:19:20.546Z,12.00
2022-11-29T12:21:56.541Z,12.10
2022-11-29T12:24:44.458Z,12.20
2022-11-29T12:27:15.627Z,12.20
2022-11-29T12:29:43.676Z,12.00
2022-11-29T12:32:30.542Z,12.10
2022-11-29T12:35:18.976Z,12.20
2022-11-29T12:38:27.838Z,12.10
2022-11-29T12:41:16.255Z,12.20
2022-11-29T12:44:39.126Z,12.20
2022-11-29T12:47:35.354Z,12.20
2022-11-29T12:50:18.792Z,12.10
2022-11-29T12:53:13.505Z,12.20
2022-11-29T12:55:52.696Z,12.20
2022-11-29T12:58:46.125Z,12.30
2022-11-29T13:01:51.220Z,12.30
2022-11-29T13:04:45.021Z,12.40
2022-11-29T13:07:33.490Z,12.60
2022-11-29T13:10:18.596Z,12.80
2022-11-29T13:12:55.551Z,13.00
2022-11-29T13:15:45.299Z,13.10
2022-11-29T13:18:51.507Z,13.20
2022-11-29T13:21:28.776Z,13.00
2022-11-29T13:24:10.853Z,12.80
2022-11-29T13:26:42.748Z,12.40
2022-11-29T13:29:18.119Z,12.40
2022-11-29T13:31:47.455Z,12.40
2022-11-29T13:34:32.478Z,12.30
2022-11-29T13:37:15.310Z,12.40
2022-11-29T13:39:53.408Z,12.40
2022-11-29T13:42:41.062Z,12.50
2022-11-29T13:45:25.594Z,12.50
2022-11-29T13:48:02.605Z,12.60
2022-11-29T13:50:43.813Z,12.70
2022-11-29T13:53:23.597Z,13.00
2022-11-29T13:56:01.911Z,13.30
2022-11-29T13:58:34.124Z,13.60
2022-11-29T14:01:10.456Z,13.50
2022-11-29T14:04:01.932Z,13.60
2022-11-29T14:06:37.976Z,13.50
2022-11-29T14:09:19.447Z,13.40
2022-11-29T14:11:58.977Z,13.10
2022-11-29T14:14:32.582Z,12.70
2022-11-29T14:17:03.136Z,12.60
2022-11-29T14:19:34.422Z,12.60
2022-11-29T14:22:13.975Z,12.60
2022-11-29T14:24:41.897Z,12.50
2022-11-29T14:27:14.970Z,12.50
2022-11-29T14:29:51.015Z,12.40
2022-11-29T14:33:20.167Z,12.30
2022-11-29T14:36:20.737Z,12.30
2022-11-29T14:39:12.789Z,12.20
2022-11-29T14:42:14.753Z,12.20
2022-11-29T14:44:52.771Z,12.10
2022-11-29T14:47:38.394Z,12.00
2022-11-29T14:50:11.214Z,12.00
2022-11-29T14:52:52.084Z,12.10
2022-11-29T14:55:25.229Z,11.90
2022-11-29T14:58:02.020Z,12.00
2022-11-29T15:00:47.948Z,11.80
2022-11-29T15:03:35.902Z,11.70
2022-11-29T15:06:26.285Z,11.70
2022-11-29T15:09:03.771Z,11.60
2022-11-29T15:11:58.273Z,11.60
2022-11-29T15:14:43.670Z,11.60
2022-11-29T15:17:36.566Z,11.60
2022-11-29T15:20:25.492Z,11.60
2022-11-29T15:23:01.076Z,11.60
2022-11-29T15:25:31.883Z,11.60
2022-11-29T15:28:04.583Z,11.50
2022-11-29T15:30:40.638Z,11.50
2022-11-29T15:33:20.041Z,11.40
2022-11-29T15:35:56.532Z,11.40
2022-11-29T15:38:24.540Z,11.40
2022-11-29T15:40:54.307Z,11.40
2022-11-29T15:43:30.417Z,11.40
2022-11-29T15:45:58.740Z,11.30
2022-11-29T15:48:29.175Z,11.30
2022-11-29T15:51:04.156Z,11.30
2022-11-29T15:53:34.288Z,11.20
2022-11-29T15:56:05.309Z,11.30
2022-11-29T15:58:34.569Z,11.30
2022-11-29T16:01:03.495Z,11.30
2022-11-29T16:03:40.537Z,11.20
2022-11-29T16:06:23.292Z,11.20
2022-11-29T16:08:54.534Z,11.20
2022-11-29T16:11:27.818Z,11.20
2022-11-29T16:14:18.286Z,11.10
2022-11-29T16:16:48.169Z,11.10
2022-11-29T16:19:26.984Z,11.10
2022-11-29T16:22:12.286Z,10.90
2022-11-29T16:25:01.222Z,11.00
2022-11-29T16:27:34.788Z,11.00
2022-11-29T16:30:04.958Z,11.00
2022-11-29T16:32:33.804Z,11.00
2022-11-29T16:35:31.580Z,11.00
2022-11-29T16:38:01.671Z,10.90
2022-11-29T16:40:33.715Z,10.90
2022-11-29T16:43:06.675Z,10.90
2022-11-29T16:45:39.168Z,10.90
2022-11-29T16:48:30.984Z,11.00
2022-11-29T16:51:13.840Z,11.00
2022-11-29T16:53:42.833Z,11.00
2022-11-29T16:56:14.969Z,11.00
2022-11-29T16:59:25.326Z,11.00
2022-11-29T17:01:34.639Z,11.00
2022-11-29T17:04:02.113Z,11.00
2022-11-29T17:06:32.203Z,10.90
2022-11-29T17:08:59.764Z,10.90
2022-11-29T17:11:29.565Z,10.80
2022-11-29T17:13:56.803Z,10.70
2022-11-29T17:16:25.428Z,10.70
2022-11-29T17:18:53.327Z,10.60
2022-11-29T17:21:27.912Z,10.50
2022-11-29T17:23:55.269Z,10.30
2022-11-29T17:26:23.497Z,10.30
2022-11-29T17:28:52.276Z,10.40
2022-11-29T17:31:24.066Z,10.40
2022-11-29T17:33:54.189Z,10.40
2022-11-29T17:36:23.938Z,10.40
2022-11-29T17:38:51.199Z,10.40
2022-11-29T17:41:22.946Z,10.40
2022-11-29T17:43:51.621Z,10.40
2022-11-29T17:46:26.148Z,10.40
2022-11-29T17:48:55.034Z,10.30
2022-11-29T17:54:14.445Z,10.40
2022-11-29T17:56:42.069Z,10.50
2022-11-29T17:59:09.318Z,10.40
2022-11-29T18:01:37.344Z,10.50
2022-11-29T18:04:05.934Z,10.50
2022-11-29T18:06:41.136Z,10.50
2022-11-29T18:09:10.987Z,10.50
2022-11-29T18:11:47.444Z,10.50
2022-11-29T18:14:23.835Z,10.50
2022-11-29T18:16:54.011Z,10.50
2022-11-29T18:19:23.440Z,10.60
2022-11-29T18:21:51.619Z,10.60
2022-11-29T18:24:19.118Z,10.60
2022-11-29T18:26:48.550Z,10.60
2022-11-29T18:29:16.003Z,10.60
2022-11-29T18:31:45.299Z,10.60
2022-11-29T18:34:14.959Z,10.60
2022-11-29T18:36:50.036Z,10.70
2022-11-29T18:39:19.845Z,10.70
2022-11-29T18:41:49.025Z,10.70
2022-11-29T18:44:18.911Z,10.70
2022-11-29T18:46:46.761Z,10.70
2022-11-29T18:49:16.137Z,10.70
2022-11-29T18:51:47.661Z,10.70
2022-11-29T18:54:17.395Z,10.60
2022-11-29T18:56:49.580Z,10.60
2022-11-29T18:59:21.977Z,10.60
2022-11-29T19:01:51.678Z,10.50
2022-11-29T19:04:21.203Z,10.50
2022-11-29T19:06:51.574Z,10.50
2022-11-29T19:09:22.136Z,10.50
2022-11-29T19:11:50.084Z,10.40
2022-11-29T19:14:18.159Z,10.30
2022-11-29T19:16:48.153Z,10.30
2022-11-29T19:19:18.706Z,10.20
2022-11-29T19:21:48.399Z,10.20
2022-11-29T19:24:18.848Z,10.20
2022-11-29T19:26:47.609Z,10.20
2022-11-29T19:29:17.392Z,10.20
2022-11-29T19:31:44.989Z,10.20
2022-11-29T19:34:12.280Z,10.20
2022-11-29T19:36:43.432Z,10.20
2022-11-29T19:39:17.142Z,10.30
2022-11-29T19:41:47.274Z,10.30
2022-11-29T19:44:17.678Z,10.40
2022-11-29T19:46:48.480Z,10.40
2022-11-29T19:49:16.879Z,10.20
2022-11-29T19:51:44.348Z,10.00
2022-11-29T19:54:14.093Z,10.00
2022-11-29T19:56:41.681Z,10.00
2022-11-29T19:59:09.804Z,10.00
2022-11-29T20:01:41.456Z,9.90
2022-11-29T20:04:12.232Z,10.00
2022-11-29T20:06:40.080Z,10.00
2022-11-29T20:09:07.768Z,10.10
2022-11-29T20:11:35.591Z,10.00
2022-11-29T20:14:07.842Z,9.80
2022-11-29T20:16:37.847Z,9.60
2022-11-29T20:19:13.214Z,9.30
2022-11-29T20:21:48.863Z,9.20
2022-11-29T20:24:18.257Z,9.20
2022-11-29T20:26:47.615Z,9.10
2022-11-29T20:29:15.849Z,9.10
2022-11-29T20:31:50.673Z,9.00
2022-11-29T20:34:19.036Z,9.00
2022-11-29T20:37:09.008Z,9.10
2022-11-29T20:40:02.436Z,9.10
2022-11-29T20:42:31.270Z,9.30
2022-11-29T20:45:01.087Z,9.40
2022-11-29T20:47:38.558Z,9.50
2022-11-29T20:50:07.023Z,9.60
2022-11-29T20:52:51.398Z,9.70
2022-11-29T20:55:18.841Z,9.80
2022-11-29T20:57:46.332Z,9.90
2022-11-29T21:00:14.079Z,9.80
2022-11-29T21:02:41.925Z,9.90
2022-11-29T21:05:10.281Z,10.00
2022-11-29T21:07:38.073Z,10.10
2022-11-29T21:10:10.854Z,10.00
2022-11-29T21:12:38.734Z,10.10
2022-11-29T21:15:06.558Z,10.20
2022-11-29T21:17:36.348Z,10.20
2022-11-29T21:20:04.801Z,10.10
2022-11-29T21:22:48.351Z,10.20
2022-11-29T21:25:59.838Z,10.20
2022-11-29T21:28:36.591Z,10.20
2022-11-29T21:31:06.815Z,10.30
2022-11-29T21:33:36.815Z,10.30
2022-11-29T21:36:06.160Z,10.30
2022-11-29T21:38:35.805Z,10.30
2022-11-29T21:41:03.067Z,10.30
2022-11-29T21:44:04.461Z,10.30
2022-11-29T21:46:19.957Z,10.40
2022-11-29T21:48:47.870Z,10.30
2022-11-29T21:51:15.071Z,10.30
2022-11-29T21:53:44.518Z,10.30
2022-11-29T21:56:12.726Z,10.30
2022-11-29T21:58:40.100Z,10.30
2022-11-29T22:01:07.401Z,10.20
2022-11-29T22:03:34.704Z,10.30
2022-11-29T22:06:20.327Z,10.30
2022-11-29T22:08:48.358Z,10.30
2022-11-29T22:11:30.788Z,10.30
2022-11-29T22:14:15.546Z,10.20
2022-11-29T22:16:43.984Z,10.20
2022-11-29T22:19:12.891Z,10.20
2022-11-29T22:21:45.700Z,10.30
2022-11-29T22:24:15.313Z,10.30
2022-11-29T22:26:43.714Z,10.30
2022-11-29T22:29:14.409Z,10.30
2022-11-29T22:31:48.319Z,10.20
2022-11-29T22:34:18.471Z,10.00
2022-11-29T22:36:48.263Z,10.00
2022-11-29T22:39:18.312Z,10.00
2022-11-29T22:41:52.269Z,10.10
2022-11-29T22:44:21.413Z,10.10
2022-11-29T22:46:50.976Z,10.20
2022-11-29T22:49:18.774Z,10.20
2022-11-29T22:51:46.609Z,10.20
2022-11-29T22:54:16.549Z,10.20
2022-11-29T22:56:45.845Z,10.10
2022-11-29T22:59:13.629Z,10.10
2022-11-29T23:01:44.010Z,10.10
2022-11-29T23:04:13.131Z,10.20
2022-11-29T23:06:45.511Z,10.20
2022-11-29T23:09:22.340Z,10.30
2022-11-29T23:11:54.959Z,10.20
2022-11-29T23:14:27.178Z,10.20
2022-11-29T23:16:54.436Z,10.20
2022-11-29T23:19:22.197Z,10.10
2022-11-29T23:21:49.911Z,10.10
2022-11-29T23:24:19.968Z,10.00
2022-11-29T23:26:47.804Z,10.00
2022-11-29T23:29:20.231Z,9.80
2022-11-29T23:31:50.370Z,9.70
2022-11-29T23:34:20.023Z,9.70
2022-11-29T23:36:52.694Z,9.70
2022-11-29T23:39:20.836Z,9.70
2022-11-29T23:41:50.978Z,9.80
2022-11-29T23:44:20.880Z,9.60
2022-11-29T23:46:48.061Z,9.60
2022-11-29T23:49:15.741Z,9.70
2022-11-29T23:51:43.440Z,9.60
2022-11-29T23:54:10.763Z,9.60
2022-11-29T23:56:40.447Z,9.60
2022-11-29T23:59:07.778Z,9.50
